Sao Jose de Mipibu, Brazil
Current Conditions -  °F | °C
As of 4:00 PM on Thursday 30 Oct 2014 (Local Time) from SBNT Reporting Station
Few Clouds Few Clouds  
Wind Chill: 82°   Ceiling: Unl
Heat Index: 85°   Visibility: 6mi
Dew Point: 68°   Wind: 22mph
Humidity: 62%   Direction: 130°SE
Pressure: 29.88"   Gusts: NA
Location:  6.07°S, 35.24°W
Report Text: SBNT 301900Z 13019KT 9999 FEW021 28/20 Q1012
Loading
Personal Weather Stations






























Interactive Weather Map
Tropical Storm Tracking
New forecast layout! Learn more

10-Day Weather Forecast

Advertisements
Track Severe Weather on mobile